createdAt,value
2018-05-08T00:00:27.390Z,4.22
2018-05-08T00:01:36.929Z,4.20
2018-05-08T00:02:45.569Z,4.30
2018-05-08T00:03:54.227Z,4.25
2018-05-08T00:05:03.003Z,4.10
2018-05-08T00:06:11.554Z,4.45
2018-05-08T00:07:20.282Z,4.28
2018-05-08T00:08:28.974Z,3.85
2018-05-08T00:09:38.455Z,2.97
2018-05-08T00:10:47.191Z,4.28
2018-05-08T00:11:55.843Z,3.30
2018-05-08T00:13:04.576Z,4.32
2018-05-08T00:14:13.226Z,3.70
2018-05-08T00:15:21.911Z,4.28
2018-05-08T00:16:31.329Z,3.87
2018-05-08T00:17:40.012Z,4.07
2018-05-08T00:18:48.766Z,3.80
2018-05-08T00:19:57.333Z,4.12
2018-05-08T00:21:06.820Z,4.40
2018-05-08T00:22:16.312Z,4.45
2018-05-08T00:23:25.142Z,4.65
2018-05-08T00:24:34.544Z,4.20
2018-05-08T00:25:43.146Z,3.60
2018-05-08T00:26:51.744Z,3.45
2018-05-08T00:28:00.473Z,3.53
2018-05-08T00:29:09.192Z,4.45
2018-05-08T00:30:17.884Z,4.07
2018-05-08T00:31:27.463Z,3.83
2018-05-08T00:32:36.170Z,4.03
2018-05-08T00:33:44.836Z,4.00
2018-05-08T00:34:53.583Z,4.15
2018-05-08T00:36:02.286Z,3.33
2018-05-08T00:37:11.046Z,3.53
2018-05-08T00:38:19.746Z,4.00
2018-05-08T00:39:28.348Z,3.47
2018-05-08T00:40:36.901Z,3.40
2018-05-08T00:41:45.537Z,3.60
2018-05-08T00:42:54.196Z,3.85
2018-05-08T00:44:02.753Z,3.35
2018-05-08T00:45:11.629Z,3.58
2018-05-08T00:46:20.267Z,3.40
2018-05-08T00:47:29.000Z,3.97
2018-05-08T00:48:37.654Z,3.92
2018-05-08T00:49:46.283Z,3.50
2018-05-08T00:50:54.859Z,3.30
2018-05-08T00:52:03.527Z,3.08
2018-05-08T00:53:12.414Z,4.15
2018-05-08T00:54:33.302Z,3.20
2018-05-08T00:55:42.022Z,3.12
2018-05-08T00:56:51.600Z,3.60
2018-05-08T00:58:00.413Z,2.78
2018-05-08T00:59:09.075Z,2.87
2018-05-08T01:00:17.673Z,3.20
2018-05-08T01:01:27.059Z,3.53
2018-05-08T01:02:35.685Z,3.40
2018-05-08T01:03:44.237Z,3.20
2018-05-08T01:04:52.876Z,2.85
2018-05-08T01:06:01.652Z,3.08
2018-05-08T01:07:11.051Z,3.33
2018-05-08T01:08:19.791Z,3.78
2018-05-08T01:09:28.407Z,3.60
2018-05-08T01:10:37.073Z,3.67
2018-05-08T01:11:46.093Z,3.33
2018-05-08T01:12:54.885Z,3.47
2018-05-08T01:14:03.548Z,3.30
2018-05-08T01:15:12.097Z,3.35
2018-05-08T01:16:20.973Z,3.47
2018-05-08T01:17:29.711Z,2.65
2018-05-08T01:18:38.292Z,3.10
2018-05-08T01:19:47.015Z,3.50
2018-05-08T01:20:55.718Z,3.17
2018-05-08T01:22:04.614Z,2.97
2018-05-08T01:23:13.240Z,3.03
2018-05-08T01:24:21.765Z,3.08
2018-05-08T01:25:30.364Z,3.20
2018-05-08T01:26:38.983Z,3.30
2018-05-08T01:27:47.620Z,2.90
2018-05-08T01:28:56.438Z,3.30
2018-05-08T01:30:05.098Z,3.40
2018-05-08T01:31:13.746Z,3.85
2018-05-08T01:32:22.334Z,3.37
2018-05-08T01:33:31.065Z,3.28
2018-05-08T01:34:39.637Z,3.17
2018-05-08T01:35:48.247Z,3.62
2018-05-08T01:36:56.927Z,2.80
2018-05-08T01:38:05.711Z,3.15
2018-05-08T01:39:14.630Z,2.80
2018-05-08T01:40:23.204Z,3.40
2018-05-08T01:41:31.903Z,3.25
2018-05-08T01:42:40.547Z,3.47
2018-05-08T01:43:49.222Z,3.60
2018-05-08T01:44:57.951Z,3.00
2018-05-08T01:46:06.554Z,2.87
2018-05-08T01:47:15.180Z,3.20
2018-05-08T01:48:24.002Z,3.40
2018-05-08T01:49:32.602Z,2.90
2018-05-08T01:50:41.234Z,3.40
2018-05-08T01:51:49.892Z,3.10
2018-05-08T01:52:58.615Z,3.62
2018-05-08T01:54:07.320Z,3.33
2018-05-08T01:55:16.006Z,2.72
2018-05-08T01:56:24.630Z,2.92
2018-05-08T01:57:33.310Z,3.22
2018-05-08T01:58:42.776Z,3.45
2018-05-08T01:59:51.379Z,3.60
2018-05-08T02:01:00.013Z,3.42
2018-05-08T02:02:08.650Z,3.87
2018-05-08T02:03:18.066Z,3.80
2018-05-08T02:04:26.724Z,3.65
2018-05-08T02:05:35.448Z,3.85
2018-05-08T02:06:44.152Z,3.30
2018-05-08T02:07:52.819Z,3.90
2018-05-08T02:09:01.588Z,3.25
2018-05-08T02:10:11.737Z,3.97
2018-05-08T02:11:20.224Z,3.45
2018-05-08T02:12:28.865Z,3.37
2018-05-08T02:13:38.413Z,4.03
2018-05-08T02:14:47.747Z,3.05
2018-05-08T02:15:56.445Z,3.20
2018-05-08T02:17:04.934Z,3.83
2018-05-08T02:18:13.560Z,4.20
2018-05-08T02:19:22.224Z,3.50
2018-05-08T02:20:30.792Z,3.80
2018-05-08T02:21:40.291Z,3.67
2018-05-08T02:22:49.129Z,4.07
2018-05-08T02:23:57.843Z,4.35
2018-05-08T02:25:06.416Z,3.80
2018-05-08T02:26:15.063Z,3.85
2018-05-08T02:27:23.662Z,3.90
2018-05-08T02:28:32.374Z,3.35
2018-05-08T02:29:41.052Z,3.83
2018-05-08T02:30:49.592Z,4.22
2018-05-08T02:31:58.198Z,3.72
2018-05-08T02:33:06.798Z,4.78
2018-05-08T02:34:16.203Z,3.50
2018-05-08T02:35:24.860Z,3.37
2018-05-08T02:36:34.247Z,4.22
2018-05-08T02:37:42.852Z,4.20
2018-05-08T02:38:51.490Z,4.37
2018-05-08T02:40:00.208Z,4.45
2018-05-08T02:41:10.142Z,4.10
2018-05-08T02:42:18.868Z,4.18
2018-05-08T02:43:27.424Z,4.10
2018-05-08T02:44:36.191Z,4.00
2018-05-08T02:45:45.681Z,4.30
2018-05-08T02:46:54.398Z,4.28
2018-05-08T02:48:03.136Z,4.22
2018-05-08T02:49:11.852Z,3.95
2018-05-08T02:50:20.517Z,3.92
2018-05-08T02:51:29.157Z,3.80
2018-05-08T02:52:38.007Z,4.12
2018-05-08T02:53:46.715Z,4.25
2018-05-08T02:54:55.371Z,3.80
2018-05-08T02:56:04.090Z,3.95
2018-05-08T02:57:12.816Z,4.30
2018-05-08T02:58:21.670Z,4.32
2018-05-08T02:59:30.314Z,4.37
2018-05-08T03:00:39.141Z,4.35
2018-05-08T03:01:48.103Z,4.50
2018-05-08T03:02:57.074Z,4.10
2018-05-08T03:04:05.808Z,3.90
2018-05-08T03:05:14.547Z,4.37
2018-05-08T03:06:23.181Z,4.30
2018-05-08T03:07:31.938Z,3.67
2018-05-08T03:08:40.695Z,4.20
2018-05-08T03:09:49.325Z,4.55
2018-05-08T03:10:58.030Z,3.60
2018-05-08T03:12:06.785Z,4.32
2018-05-08T03:13:15.493Z,4.60
2018-05-08T03:14:24.246Z,4.15
2018-05-08T03:15:33.000Z,4.03
2018-05-08T03:16:42.530Z,4.18
2018-05-08T03:17:51.374Z,4.05
2018-05-08T03:19:00.089Z,4.47
2018-05-08T03:20:09.573Z,4.78
2018-05-08T03:21:18.449Z,3.95
2018-05-08T03:22:27.136Z,4.25
2018-05-08T03:23:35.748Z,4.40
2018-05-08T03:24:44.439Z,4.18
2018-05-08T03:25:54.096Z,4.65
2018-05-08T03:27:02.838Z,5.03
2018-05-08T03:28:11.603Z,4.70
2018-05-08T03:29:20.207Z,4.37
2018-05-08T03:30:28.912Z,4.90
2018-05-08T03:31:39.092Z,4.60
2018-05-08T03:32:47.751Z,4.68
2018-05-08T03:33:56.458Z,4.53
2018-05-08T03:35:05.120Z,4.68
2018-05-08T03:36:13.847Z,4.57
2018-05-08T03:37:22.607Z,4.37
2018-05-08T03:38:31.324Z,4.55
2018-05-08T03:39:40.764Z,3.85
2018-05-08T03:40:50.292Z,4.57
2018-05-08T03:41:59.038Z,5.60
2018-05-08T03:43:07.689Z,4.75
2018-05-08T03:44:16.379Z,4.30
2018-05-08T03:45:25.116Z,4.50
2018-05-08T03:46:33.864Z,4.75
2018-05-08T03:47:42.540Z,4.22
2018-05-08T03:48:51.284Z,4.60
2018-05-08T03:49:59.906Z,4.65
2018-05-08T03:51:09.749Z,4.35
2018-05-08T03:52:18.494Z,5.30
2018-05-08T03:53:27.215Z,4.60
2018-05-08T03:54:35.905Z,4.85
2018-05-08T03:55:44.661Z,4.55
2018-05-08T03:56:53.298Z,4.97
2018-05-08T03:58:02.123Z,5.62
2018-05-08T03:59:10.765Z,5.35
2018-05-08T04:00:31.338Z,5.22
2018-05-08T04:01:52.107Z,5.65
2018-05-08T04:03:12.899Z,5.12
2018-05-08T04:04:33.623Z,5.35
2018-05-08T04:05:54.021Z,5.07
2018-05-08T04:07:14.833Z,4.90
2018-05-08T04:08:30.391Z,6.10
2018-05-08T04:09:39.156Z,6.00
2018-05-08T04:10:48.735Z,5.22
2018-05-08T04:11:57.358Z,5.20
2018-05-08T04:13:06.212Z,5.78
2018-05-08T04:14:15.610Z,5.78
2018-05-08T04:15:24.365Z,5.43
2018-05-08T04:16:33.023Z,5.43
2018-05-08T04:17:41.743Z,4.90
2018-05-08T04:18:51.258Z,5.05
2018-05-08T04:19:59.954Z,5.75
2018-05-08T04:21:08.684Z,5.53
2018-05-08T04:22:17.309Z,5.87
2018-05-08T04:23:25.966Z,6.35
2018-05-08T04:24:34.647Z,5.62
2018-05-08T04:25:43.348Z,5.28
2018-05-08T04:26:52.067Z,5.15
2018-05-08T04:28:00.664Z,5.80
2018-05-08T04:29:09.431Z,5.50
2018-05-08T04:30:18.076Z,5.47
2018-05-08T04:31:26.790Z,5.35
2018-05-08T04:32:35.512Z,5.75
2018-05-08T04:33:44.922Z,4.80
2018-05-08T04:34:53.695Z,4.85
2018-05-08T04:36:02.351Z,5.40
2018-05-08T04:37:10.951Z,4.90
2018-05-08T04:38:20.482Z,6.00
2018-05-08T04:39:29.163Z,5.28
2018-05-08T04:40:37.909Z,5.43
2018-05-08T04:41:46.470Z,5.40
2018-05-08T04:42:55.073Z,5.37
2018-05-08T04:44:04.446Z,5.00
2018-05-08T04:45:13.176Z,5.40
2018-05-08T04:46:21.984Z,5.70
2018-05-08T04:47:30.798Z,5.18
2018-05-08T04:48:39.230Z,5.87
2018-05-08T04:49:48.098Z,5.32
2018-05-08T04:50:56.790Z,5.25
2018-05-08T04:52:05.467Z,4.75
2018-05-08T04:53:14.151Z,5.43
2018-05-08T04:54:22.786Z,5.05
2018-05-08T04:55:31.320Z,5.30
2018-05-08T04:56:40.013Z,4.80
2018-05-08T04:57:49.383Z,5.65
2018-05-08T04:58:58.063Z,4.87
2018-05-08T05:00:06.801Z,4.57
2018-05-08T05:01:16.132Z,5.20
2018-05-08T05:02:24.698Z,5.22
2018-05-08T05:03:33.442Z,5.90
2018-05-08T05:04:42.058Z,5.30
2018-05-08T05:05:50.654Z,4.95
2018-05-08T05:06:59.407Z,4.87
2018-05-08T05:08:08.043Z,5.72
2018-05-08T05:09:17.531Z,4.72
2018-05-08T05:10:26.186Z,5.70
2018-05-08T05:11:35.003Z,4.20
2018-05-08T05:12:43.651Z,4.53
2018-05-08T05:13:52.357Z,4.37
2018-05-08T05:15:01.087Z,4.35
2018-05-08T05:16:09.807Z,4.75
2018-05-08T05:17:18.507Z,5.18
2018-05-08T05:18:27.184Z,4.22
2018-05-08T05:19:35.918Z,4.87
2018-05-08T05:20:45.354Z,4.75
2018-05-08T05:21:54.019Z,4.70
2018-05-08T05:23:03.585Z,5.10
2018-05-08T05:24:12.188Z,5.68
2018-05-08T05:25:20.881Z,4.60
2018-05-08T05:26:29.640Z,4.60
2018-05-08T05:27:39.172Z,4.65
2018-05-08T05:28:47.867Z,4.43
2018-05-08T05:29:57.159Z,4.07
2018-05-08T05:31:06.999Z,4.30
2018-05-08T05:32:15.721Z,4.43
2018-05-08T05:33:24.476Z,4.20
2018-05-08T05:34:33.175Z,4.95
2018-05-08T05:35:41.775Z,4.07
2018-05-08T05:36:50.397Z,3.83
2018-05-08T05:37:58.990Z,3.70
2018-05-08T05:39:07.571Z,4.30
2018-05-08T05:40:16.282Z,5.12
2018-05-08T05:41:24.822Z,4.80
2018-05-08T05:42:34.303Z,4.35
2018-05-08T05:43:42.943Z,5.05
2018-05-08T05:44:51.676Z,4.25
2018-05-08T05:46:00.278Z,5.03
2018-05-08T05:47:08.969Z,4.18
2018-05-08T05:48:17.676Z,4.70
2018-05-08T05:49:26.373Z,4.50
2018-05-08T05:50:35.019Z,4.30
2018-05-08T05:51:43.609Z,4.40
2018-05-08T05:52:52.165Z,4.65
2018-05-08T05:54:00.825Z,4.10
2018-05-08T05:55:09.427Z,4.78
2018-05-08T05:56:18.088Z,4.65
2018-05-08T05:57:27.602Z,5.05
2018-05-08T05:58:36.311Z,4.55
2018-05-08T05:59:44.986Z,3.83
2018-05-08T06:00:53.715Z,4.10
2018-05-08T06:02:02.441Z,4.80
2018-05-08T06:03:11.136Z,4.10
2018-05-08T06:04:19.857Z,4.47
2018-05-08T06:05:28.460Z,4.00
2018-05-08T06:06:37.052Z,4.15
2018-05-08T06:07:45.697Z,4.45
2018-05-08T06:08:55.194Z,5.05
2018-05-08T06:10:03.921Z,4.47
2018-05-08T06:11:12.695Z,4.45
2018-05-08T06:12:21.383Z,4.78
2018-05-08T06:13:30.160Z,4.25
2018-05-08T06:14:38.884Z,4.28
2018-05-08T06:15:47.472Z,4.00
2018-05-08T06:16:56.174Z,4.18
2018-05-08T06:18:04.834Z,4.60
2018-05-08T06:19:13.552Z,4.68
2018-05-08T06:20:22.957Z,3.90
2018-05-08T06:21:31.640Z,4.00
2018-05-08T06:22:40.288Z,3.50
2018-05-08T06:23:48.892Z,4.45
2018-05-08T06:24:57.379Z,3.95
2018-05-08T06:26:05.948Z,4.00
2018-05-08T06:27:14.585Z,3.97
2018-05-08T06:28:23.350Z,4.43
2018-05-08T06:29:32.093Z,4.15
2018-05-08T06:30:40.759Z,4.35
2018-05-08T06:31:49.568Z,4.30
2018-05-08T06:32:58.278Z,4.55
2018-05-08T06:34:06.836Z,4.20
2018-05-08T06:35:15.455Z,4.32
2018-05-08T06:36:24.887Z,4.25
2018-05-08T06:37:33.620Z,4.18
2018-05-08T06:38:42.351Z,4.15
2018-05-08T06:39:50.984Z,4.75
2018-05-08T06:40:59.706Z,3.60
2018-05-08T06:42:08.367Z,3.90
2018-05-08T06:43:16.985Z,3.95
2018-05-08T06:44:25.774Z,3.80
2018-05-08T06:45:34.463Z,4.22
2018-05-08T06:46:43.156Z,4.28
2018-05-08T06:47:51.724Z,4.05
2018-05-08T06:49:01.198Z,4.97
2018-05-08T06:50:10.623Z,4.10
2018-05-08T06:51:20.269Z,3.95
2018-05-08T06:52:28.951Z,3.75
2018-05-08T06:53:37.666Z,3.65
2018-05-08T06:54:46.373Z,3.53
2018-05-08T06:55:55.013Z,3.65
2018-05-08T06:57:05.130Z,4.53
2018-05-08T06:58:13.903Z,4.20
2018-05-08T06:59:22.615Z,3.65
2018-05-08T07:00:31.922Z,4.20
2018-05-08T07:01:40.552Z,3.80
2018-05-08T07:02:49.264Z,3.83
2018-05-08T07:03:58.043Z,3.45
2018-05-08T07:05:06.811Z,3.42
2018-05-08T07:06:16.298Z,3.65
2018-05-08T07:07:25.712Z,3.97
2018-05-08T07:08:34.414Z,3.35
2018-05-08T07:09:43.058Z,4.37
2018-05-08T07:10:51.726Z,4.45
2018-05-08T07:12:00.263Z,3.67
2018-05-08T07:13:08.851Z,3.25
2018-05-08T07:14:17.463Z,3.10
2018-05-08T07:15:26.939Z,4.30
2018-05-08T07:16:35.647Z,3.80
2018-05-08T07:17:44.258Z,4.53
2018-05-08T07:18:53.247Z,3.87
2018-05-08T07:20:01.819Z,4.07
2018-05-08T07:21:11.187Z,3.60
2018-05-08T07:22:19.839Z,3.72
2018-05-08T07:23:29.231Z,3.70
2018-05-08T07:24:37.835Z,4.00
2018-05-08T07:25:46.482Z,3.80
2018-05-08T07:26:55.149Z,3.60
2018-05-08T07:28:03.944Z,4.25
2018-05-08T07:29:12.527Z,3.30
2018-05-08T07:30:21.229Z,3.53
2018-05-08T07:31:29.989Z,3.50
2018-05-08T07:32:38.639Z,3.55
2018-05-08T07:33:48.021Z,4.10
2018-05-08T07:34:56.772Z,4.80
2018-05-08T07:36:05.330Z,4.47
2018-05-08T07:37:14.041Z,6.25
2018-05-08T07:38:22.879Z,4.60
2018-05-08T07:39:31.423Z,3.58
2018-05-08T07:40:40.096Z,3.50
2018-05-08T07:41:48.783Z,3.92
2018-05-08T07:42:57.408Z,3.45
2018-05-08T07:44:06.047Z,3.45
2018-05-08T07:45:14.814Z,3.83
2018-05-08T07:46:24.380Z,3.22
2018-05-08T07:47:33.059Z,3.37
2018-05-08T07:48:41.663Z,3.92
2018-05-08T07:49:50.375Z,3.20
2018-05-08T07:50:59.724Z,4.28
2018-05-08T07:52:08.334Z,3.72
2018-05-08T07:53:16.924Z,3.75
2018-05-08T07:54:25.758Z,3.58
2018-05-08T07:55:34.495Z,4.00
2018-05-08T07:56:43.179Z,3.42
2018-05-08T07:57:51.775Z,3.30
2018-05-08T07:59:00.486Z,3.00
2018-05-08T08:00:09.908Z,3.42
2018-05-08T08:01:20.873Z,2.97
2018-05-08T08:02:29.556Z,3.60
2018-05-08T08:03:38.206Z,3.25
2018-05-08T08:04:46.884Z,3.70
2018-05-08T08:05:55.597Z,2.90
2018-05-08T08:07:04.176Z,3.87
2018-05-08T08:08:12.762Z,3.67
2018-05-08T08:09:21.518Z,2.87
2018-05-08T08:10:30.208Z,3.62
2018-05-08T08:11:38.923Z,3.70
2018-05-08T08:12:49.119Z,3.15
2018-05-08T08:13:58.543Z,4.00
2018-05-08T08:15:07.147Z,3.42
2018-05-08T08:16:15.768Z,3.55
2018-05-08T08:17:24.385Z,3.58
2018-05-08T08:18:33.109Z,4.12
2018-05-08T08:19:41.776Z,3.20
2018-05-08T08:20:50.501Z,2.87
2018-05-08T08:21:59.207Z,3.00
2018-05-08T08:23:07.767Z,4.07
2018-05-08T08:24:16.504Z,3.10
2018-05-08T08:25:25.134Z,3.28
2018-05-08T08:26:35.389Z,3.33
2018-05-08T08:27:44.047Z,3.70
2018-05-08T08:28:52.827Z,3.20
2018-05-08T08:30:01.556Z,3.10
2018-05-08T08:31:10.143Z,3.80
2018-05-08T08:32:18.838Z,3.55
2018-05-08T08:33:27.555Z,3.15
2018-05-08T08:34:36.870Z,3.50
2018-05-08T08:35:45.503Z,3.50
2018-05-08T08:36:54.163Z,3.25
2018-05-08T08:38:02.872Z,3.25
2018-05-08T08:39:12.271Z,3.50
2018-05-08T08:40:21.217Z,2.95
2018-05-08T08:41:29.895Z,3.40
2018-05-08T08:42:38.446Z,3.80
2018-05-08T08:43:47.215Z,3.25
2018-05-08T08:44:55.863Z,3.10
2018-05-08T08:46:04.672Z,3.53
2018-05-08T08:47:13.352Z,3.25
2018-05-08T08:48:21.920Z,3.30
2018-05-08T08:49:30.711Z,3.80
2018-05-08T08:50:39.515Z,3.05
2018-05-08T08:51:48.183Z,2.92
2018-05-08T08:52:56.967Z,2.65
2018-05-08T08:54:05.717Z,2.95
2018-05-08T08:55:14.390Z,2.80
2018-05-08T08:56:23.049Z,3.60
2018-05-08T08:57:31.709Z,3.00
2018-05-08T08:58:40.322Z,3.05
2018-05-08T08:59:48.996Z,3.45
2018-05-08T09:00:57.630Z,2.80
2018-05-08T09:02:06.303Z,2.80
2018-05-08T09:03:14.907Z,3.12
2018-05-08T09:04:24.405Z,2.85
2018-05-08T09:05:33.127Z,2.80
2018-05-08T09:06:42.553Z,2.92
2018-05-08T09:07:51.381Z,2.67
2018-05-08T09:09:00.100Z,2.47
2018-05-08T09:10:08.695Z,3.12
2018-05-08T09:11:17.599Z,3.10
2018-05-08T09:12:26.199Z,3.25
2018-05-08T09:13:34.811Z,2.55
2018-05-08T09:14:43.424Z,2.40
2018-05-08T09:15:52.754Z,3.30
2018-05-08T09:17:01.477Z,2.45
2018-05-08T09:18:10.173Z,2.37
2018-05-08T09:19:18.866Z,2.55
2018-05-08T09:20:27.469Z,2.47
2018-05-08T09:21:36.307Z,2.50
2018-05-08T09:22:44.914Z,2.20
2018-05-08T09:23:53.680Z,2.62
2018-05-08T09:25:02.502Z,2.60
2018-05-08T09:26:12.002Z,2.55
2018-05-08T09:27:20.575Z,2.60
2018-05-08T09:28:29.195Z,2.55
2018-05-08T09:29:37.795Z,3.00
2018-05-08T09:30:46.436Z,2.20
2018-05-08T09:31:55.840Z,3.03
2018-05-08T09:33:05.372Z,2.45
2018-05-08T09:34:14.102Z,2.80
2018-05-08T09:35:22.744Z,2.75
2018-05-08T09:36:32.235Z,2.30
2018-05-08T09:37:40.811Z,2.45
2018-05-08T09:38:49.510Z,3.17
2018-05-08T09:39:58.308Z,2.20
2018-05-08T09:41:06.934Z,2.20
2018-05-08T09:42:15.649Z,3.05
2018-05-08T09:43:24.276Z,2.65
2018-05-08T09:44:32.870Z,1.85
2018-05-08T09:45:41.613Z,2.42
2018-05-08T09:46:50.447Z,2.67
2018-05-08T09:47:59.149Z,2.90
2018-05-08T09:49:07.863Z,2.47
2018-05-08T09:50:16.540Z,2.03
2018-05-08T09:51:25.242Z,2.33
2018-05-08T09:52:33.914Z,2.33
2018-05-08T09:53:42.712Z,2.75
2018-05-08T09:54:52.216Z,2.60
2018-05-08T09:56:00.796Z,2.55
2018-05-08T09:57:09.417Z,1.95
2018-05-08T09:58:18.146Z,2.67
2018-05-08T09:59:26.843Z,2.30
2018-05-08T10:00:36.915Z,3.55
2018-05-08T10:01:45.508Z,2.85
2018-05-08T10:02:54.199Z,3.03
2018-05-08T10:04:02.961Z,1.98
2018-05-08T10:05:11.851Z,2.40
2018-05-08T10:06:20.551Z,2.25
2018-05-08T10:07:29.126Z,2.50
2018-05-08T10:08:37.773Z,2.30
2018-05-08T10:09:46.552Z,2.08
2018-05-08T10:10:55.324Z,2.78
2018-05-08T10:12:03.986Z,2.30
2018-05-08T10:13:12.567Z,2.35
2018-05-08T10:14:21.184Z,2.28
2018-05-08T10:15:29.809Z,2.37
2018-05-08T10:16:38.596Z,2.70
2018-05-08T10:17:47.387Z,1.95
2018-05-08T10:18:56.131Z,2.50
2018-05-08T10:20:04.715Z,2.10
2018-05-08T10:21:14.208Z,2.10
2018-05-08T10:22:22.750Z,2.15
2018-05-08T10:23:31.584Z,2.08
2018-05-08T10:24:41.068Z,2.20
2018-05-08T10:25:49.666Z,2.00
2018-05-08T10:26:58.380Z,1.90
2018-05-08T10:28:07.151Z,1.90
2018-05-08T10:29:15.874Z,2.78
2018-05-08T10:30:24.541Z,2.53
2018-05-08T10:31:33.320Z,3.42
2018-05-08T10:32:42.045Z,2.33
2018-05-08T10:33:50.727Z,2.30
2018-05-08T10:34:59.329Z,1.92
2018-05-08T10:36:07.943Z,2.53
2018-05-08T10:37:17.520Z,1.80
2018-05-08T10:38:26.233Z,2.20
2018-05-08T10:39:35.722Z,2.50
2018-05-08T10:40:45.059Z,2.70
2018-05-08T10:41:54.573Z,2.12
2018-05-08T10:43:03.933Z,2.00
2018-05-08T10:44:14.076Z,5.18
2018-05-08T10:45:22.765Z,2.22
2018-05-08T10:46:31.364Z,2.05
2018-05-08T10:47:40.088Z,2.50
2018-05-08T10:48:48.925Z,2.10
2018-05-08T10:49:57.801Z,2.10
2018-05-08T10:51:06.608Z,3.60
2018-05-08T10:52:15.279Z,2.33
2018-05-08T10:53:23.928Z,1.92
2018-05-08T10:54:32.758Z,2.60
2018-05-08T10:55:41.570Z,2.60
2018-05-08T10:56:50.107Z,1.98
2018-05-08T10:57:58.721Z,2.22
2018-05-08T10:59:08.323Z,2.30
2018-05-08T11:00:16.924Z,2.12
2018-05-08T11:01:25.544Z,2.00
2018-05-08T11:02:34.415Z,2.03
2018-05-08T11:03:43.203Z,2.08
2018-05-08T11:04:52.623Z,1.92
2018-05-08T11:06:01.353Z,2.30
2018-05-08T11:07:10.162Z,2.20
2018-05-08T11:08:18.946Z,2.58
2018-05-08T11:09:28.266Z,2.20
2018-05-08T11:10:37.686Z,2.33
2018-05-08T11:11:46.524Z,2.72
2018-05-08T11:12:55.369Z,2.00
2018-05-08T11:14:04.030Z,2.10
2018-05-08T11:15:12.643Z,2.40
2018-05-08T11:16:21.416Z,2.50
2018-05-08T11:17:30.034Z,1.58
2018-05-08T11:18:38.802Z,1.60
2018-05-08T11:19:47.590Z,2.20
2018-05-08T11:20:56.344Z,2.03
2018-05-08T11:22:05.839Z,1.80
2018-05-08T11:23:14.556Z,1.92
2018-05-08T11:24:23.158Z,2.03
2018-05-08T11:25:31.987Z,2.05
2018-05-08T11:26:40.773Z,2.25
2018-05-08T11:27:49.349Z,2.25
2018-05-08T11:28:58.072Z,2.12
2018-05-08T11:30:06.807Z,2.90
2018-05-08T11:31:15.403Z,2.22
2018-05-08T11:32:23.906Z,2.10
2018-05-08T11:33:32.614Z,2.42
2018-05-08T11:34:41.233Z,2.10
2018-05-08T11:35:49.948Z,2.00
2018-05-08T11:36:58.720Z,2.22
2018-05-08T11:38:07.328Z,2.10
2018-05-08T11:39:16.869Z,2.10
2018-05-08T11:40:25.548Z,1.90
2018-05-08T11:41:34.132Z,2.42
2018-05-08T11:42:42.830Z,2.40
2018-05-08T11:43:51.632Z,2.20
2018-05-08T11:45:00.313Z,2.30
2018-05-08T11:46:09.685Z,2.28
2018-05-08T11:47:18.396Z,2.40
2018-05-08T11:48:27.943Z,2.10
2018-05-08T11:49:36.646Z,2.20
2018-05-08T11:50:45.399Z,2.12
2018-05-08T11:51:53.923Z,1.60
2018-05-08T11:53:03.285Z,2.35
2018-05-08T11:54:11.947Z,2.05
2018-05-08T11:55:20.835Z,1.65
2018-05-08T11:56:29.332Z,2.65
2018-05-08T11:57:38.164Z,2.55
2018-05-08T11:58:46.914Z,2.53
2018-05-08T11:59:56.383Z,2.40
2018-05-08T12:01:05.153Z,2.92
2018-05-08T12:02:14.619Z,2.87
2018-05-08T12:03:23.234Z,2.40
2018-05-08T12:04:32.682Z,2.15
2018-05-08T12:05:41.378Z,2.25
2018-05-08T12:06:50.179Z,2.47
2018-05-08T12:07:58.875Z,2.40
2018-05-08T12:09:07.525Z,1.80
2018-05-08T12:10:16.258Z,2.10
2018-05-08T12:11:24.900Z,2.40
2018-05-08T12:12:33.509Z,2.10
2018-05-08T12:13:42.266Z,2.55
2018-05-08T12:14:51.085Z,1.95
2018-05-08T12:15:59.773Z,2.55
2018-05-08T12:17:08.459Z,2.40
2018-05-08T12:18:17.097Z,2.17
2018-05-08T12:19:25.812Z,2.60
2018-05-08T12:20:34.526Z,2.67
2018-05-08T12:21:43.328Z,2.67
2018-05-08T12:22:52.040Z,1.85
2018-05-08T12:24:00.759Z,3.33
2018-05-08T12:25:09.489Z,2.20
2018-05-08T12:26:18.869Z,2.15
2018-05-08T12:27:27.528Z,2.62
2018-05-08T12:28:36.218Z,2.05
2018-05-08T12:29:44.962Z,1.98
2018-05-08T12:30:53.535Z,1.85
2018-05-08T12:32:02.859Z,3.05
2018-05-08T12:33:11.563Z,5.47
2018-05-08T12:34:20.300Z,2.50
2018-05-08T12:35:28.895Z,3.45
2018-05-08T12:36:37.407Z,2.00
2018-05-08T12:37:46.073Z,1.90
2018-05-08T12:38:54.918Z,2.20
2018-05-08T12:40:03.506Z,1.95
2018-05-08T12:41:12.059Z,2.15
2018-05-08T12:42:20.619Z,1.90
2018-05-08T12:43:29.247Z,1.98
2018-05-08T12:44:37.974Z,2.05
2018-05-08T12:45:46.588Z,2.08
2018-05-08T12:46:55.335Z,1.80
2018-05-08T12:48:03.983Z,2.05
2018-05-08T12:49:12.648Z,2.20
2018-05-08T12:50:22.038Z,2.15
2018-05-08T12:51:30.746Z,2.12
2018-05-08T12:52:39.466Z,1.87
2018-05-08T12:53:48.090Z,1.95
2018-05-08T12:54:57.698Z,2.15
2018-05-08T12:56:06.547Z,2.33
2018-05-08T12:57:15.106Z,1.95
2018-05-08T12:58:23.692Z,1.90
2018-05-08T12:59:32.361Z,2.20
2018-05-08T13:00:40.919Z,2.00
2018-05-08T13:01:49.603Z,2.35
2018-05-08T13:02:58.286Z,1.80
2018-05-08T13:04:07.103Z,1.95
2018-05-08T13:05:15.869Z,1.80
2018-05-08T13:06:24.622Z,2.10
2018-05-08T13:07:33.299Z,2.20
2018-05-08T13:08:41.919Z,2.05
2018-05-08T13:09:51.247Z,1.70
2018-05-08T13:10:59.847Z,2.03
2018-05-08T13:12:08.420Z,1.80
2018-05-08T13:13:16.973Z,1.90
2018-05-08T13:14:25.696Z,2.05
2018-05-08T13:15:34.367Z,2.05
2018-05-08T13:16:43.105Z,2.00
2018-05-08T13:17:51.691Z,2.35
2018-05-08T13:19:00.352Z,1.90
2018-05-08T13:20:09.136Z,2.12
2018-05-08T13:21:17.872Z,2.55
2018-05-08T13:22:27.250Z,2.55
2018-05-08T13:23:36.097Z,2.62
2018-05-08T13:24:44.806Z,2.17
2018-05-08T13:25:53.443Z,2.30
2018-05-08T13:27:02.263Z,2.37
2018-05-08T13:28:11.752Z,2.35
2018-05-08T13:29:20.574Z,2.47
2018-05-08T13:30:29.227Z,2.97
2018-05-08T13:31:37.781Z,2.10
2018-05-08T13:32:46.495Z,2.30
2018-05-08T13:33:55.237Z,2.87
2018-05-08T13:35:04.050Z,2.50
2018-05-08T13:36:12.716Z,2.90
2018-05-08T13:37:21.244Z,2.10
2018-05-08T13:38:29.822Z,2.25
2018-05-08T13:39:38.477Z,2.35
2018-05-08T13:40:47.347Z,2.70
2018-05-08T13:41:56.127Z,2.20
2018-05-08T13:43:04.652Z,2.55
2018-05-08T13:44:13.281Z,2.25
2018-05-08T13:45:21.908Z,2.30
2018-05-08T13:46:30.548Z,3.40
2018-05-08T13:47:39.109Z,2.60
2018-05-08T13:48:47.842Z,2.22
2018-05-08T13:49:56.379Z,2.37
2018-05-08T13:51:05.003Z,3.30
2018-05-08T13:52:13.749Z,2.30
2018-05-08T13:53:22.324Z,2.55
2018-05-08T13:54:30.947Z,2.47
2018-05-08T13:55:39.672Z,2.40
2018-05-08T13:56:48.201Z,2.33
2018-05-08T13:59:11.673Z,2.45
2018-05-08T14:00:21.176Z,2.80
2018-05-08T14:01:29.774Z,2.20
2018-05-08T14:02:38.406Z,2.85
2018-05-08T14:03:47.118Z,2.62
2018-05-08T14:04:55.973Z,2.42
2018-05-08T14:06:04.657Z,4.97
2018-05-08T14:07:13.370Z,2.25
2018-05-08T14:08:22.106Z,2.70
2018-05-08T14:09:30.756Z,2.40
2018-05-08T14:10:39.378Z,2.05
2018-05-08T14:11:47.979Z,2.62
2018-05-08T14:12:56.721Z,2.20
2018-05-08T14:14:06.244Z,2.17
2018-05-08T14:15:14.985Z,2.40
2018-05-08T14:16:23.645Z,2.42
2018-05-08T14:17:32.349Z,2.22
2018-05-08T14:18:41.119Z,3.03
2018-05-08T14:19:49.771Z,2.05
2018-05-08T14:20:58.379Z,2.15
2018-05-08T14:22:07.020Z,2.65
2018-05-08T14:23:15.665Z,2.97
2018-05-08T14:24:24.371Z,2.42
2018-05-08T14:25:34.062Z,2.15
2018-05-08T14:26:42.819Z,2.40
2018-05-08T14:27:51.442Z,2.50
2018-05-08T14:29:00.078Z,2.40
2018-05-08T14:30:08.673Z,2.20
2018-05-08T14:31:18.311Z,2.20
2018-05-08T14:32:27.036Z,3.92
2018-05-08T14:33:35.605Z,1.80
2018-05-08T14:34:44.655Z,2.30
2018-05-08T14:35:53.365Z,2.28
2018-05-08T14:37:02.147Z,2.25
2018-05-08T14:38:10.744Z,1.90
2018-05-08T14:39:19.472Z,2.05
2018-05-08T14:40:28.256Z,2.30
2018-05-08T14:41:36.900Z,2.37
2018-05-08T14:42:45.646Z,2.67
2018-05-08T14:43:54.345Z,3.00
2018-05-08T14:45:03.105Z,2.37
2018-05-08T14:46:11.652Z,4.10
2018-05-08T14:47:21.220Z,2.70
2018-05-08T14:48:29.959Z,2.65
2018-05-08T14:49:38.867Z,2.20
2018-05-08T14:50:47.367Z,2.65
2018-05-08T14:51:56.100Z,2.03
2018-05-08T14:53:04.784Z,1.95
2018-05-08T14:54:13.367Z,2.87
2018-05-08T14:55:22.086Z,2.30
2018-05-08T14:56:30.783Z,2.70
2018-05-08T14:57:39.426Z,2.40
2018-05-08T14:58:48.969Z,2.35
2018-05-08T14:59:57.679Z,2.53
2018-05-08T15:01:06.395Z,2.03
2018-05-08T15:02:15.050Z,2.70
2018-05-08T15:03:24.694Z,2.58
2018-05-08T15:04:33.407Z,2.50
2018-05-08T15:05:42.029Z,2.12
2018-05-08T15:06:50.749Z,2.65
2018-05-08T15:07:59.384Z,2.72
2018-05-08T15:09:07.954Z,2.30
2018-05-08T15:10:16.649Z,2.50
2018-05-08T15:11:25.380Z,2.67
2018-05-08T15:12:34.040Z,2.70
2018-05-08T15:13:42.739Z,2.60
2018-05-08T15:14:51.439Z,2.40
2018-05-08T15:16:00.113Z,2.55
2018-05-08T15:17:08.873Z,2.70
2018-05-08T15:18:17.641Z,2.10